Time;durP1;ratioP1;P1;durP2;ratioP2;P2;SDS_P1;SDS_P2;PMS_P1;PMS_P2;Temp;Humidity;BMP_temperature;BMP_pressure;BME280_temperature;BME280_humidity;BME280_pressure;Samples;Min_cycle;Max_cycle;Signal;HPM_P1;HPM_P2
2021/11/10 00:00:22;;;;;;;11.70;9.93;;;;;;;9.49;67.15;102178.63;5041238;28;20174;-69
2021/11/10 00:02:48;;;;;;;11.80;9.77;;;;;;;9.65;67.24;102184.38;5041627;28;20464;-69
2021/11/10 00:05:15;;;;;;;10.40;9.37;;;;;;;9.25;67.59;102176.88;5041146;28;20399;-69
2021/11/10 00:07:41;;;;;;;9.70;8.17;;;;;;;9.30;68.86;102183.97;5041063;28;20174;-68
2021/11/10 00:10:07;;;;;;;11.33;9.10;;;;;;;9.51;66.54;102186.47;5041471;28;20787;-68
2021/11/10 00:12:32;;;;;;;12.57;9.40;;;;;;;9.28;67.64;102183.88;5040818;28;20210;-69
2021/11/10 00:14:58;;;;;;;10.80;9.10;;;;;;;9.43;67.59;102189.69;5023898;28;20183;-69
2021/11/10 00:17:23;;;;;;;11.20;9.23;;;;;;;9.15;67.98;102192.94;5041382;28;20555;-68
2021/11/10 00:19:48;;;;;;;15.90;8.70;;;;;;;9.34;66.69;102189.34;5040798;28;20182;-69
2021/11/10 00:22:14;;;;;;;11.67;7.87;;;;;;;9.29;66.91;102184.78;5040714;28;20185;-68
2021/11/10 00:24:39;;;;;;;9.93;8.20;;;;;;;9.26;66.72;102190.75;5041875;28;20166;-68
2021/11/10 00:27:05;;;;;;;11.73;8.57;;;;;;;9.13;66.82;102192.00;5023896;28;20539;-69
2021/11/10 00:29:30;;;;;;;14.53;9.20;;;;;;;9.04;68.05;102184.72;5040670;28;20188;-68
2021/11/10 00:31:55;;;;;;;10.53;8.30;;;;;;;9.06;68.24;102180.44;5039997;28;20213;-68
2021/11/10 00:34:21;;;;;;;13.83;9.70;;;;;;;9.22;67.68;102178.47;5040646;28;20220;-69
2021/11/10 00:36:47;;;;;;;15.80;9.43;;;;;;;9.10;68.07;102169.34;5040644;28;20170;-69
2021/11/10 00:39:12;;;;;;;14.27;9.33;;;;;;;9.04;68.07;102171.72;5040854;28;20175;-68
2021/11/10 00:41:38;;;;;;;12.90;9.50;;;;;;;9.35;67.27;102165.09;5023106;28;20486;-68
2021/11/10 00:44:03;;;;;;;9.63;8.40;;;;;;;9.33;67.97;102166.72;5040464;28;20273;-67
2021/11/10 00:46:29;;;;;;;14.67;9.13;;;;;;;9.25;67.46;102169.06;5040865;28;20459;-69
2021/11/10 00:48:55;;;;;;;10.40;8.43;;;;;;;9.05;67.43;102163.09;5040562;28;20174;-68
2021/11/10 00:51:20;;;;;;;12.10;8.43;;;;;;;9.17;67.99;102164.38;5039998;28;20460;-69
2021/11/10 00:53:46;;;;;;;12.93;7.60;;;;;;;9.06;67.42;102162.25;5040905;28;20244;-69
2021/11/10 00:56:11;;;;;;;15.50;8.53;;;;;;;8.90;68.44;102159.88;5040234;28;20178;-69
2021/11/10 00:58:36;;;;;;;10.73;7.80;;;;;;;8.90;68.74;102158.19;5040091;28;20280;-68
2021/11/10 01:01:02;;;;;;;12.53;7.93;;;;;;;8.98;69.28;102157.59;5040566;28;20206;-69
2021/11/10 01:03:27;;;;;;;12.73;7.90;;;;;;;8.85;68.87;102156.19;5022835;28;20201;-68
2021/11/10 01:05:55;;;;;;;10.20;6.67;;;;;;;9.09;67.58;102159.78;5040145;28;20175;-69
2021/11/10 01:08:21;;;;;;;10.43;7.23;;;;;;;9.07;66.79;102152.75;5040626;28;20584;-68
2021/11/10 01:10:46;;;;;;;10.03;7.10;;;;;;;9.17;66.87;102161.78;5039821;28;20403;-68
2021/11/10 01:13:12;;;;;;;8.63;6.50;;;;;;;9.08;67.71;102165.81;5022586;28;20446;-68
2021/11/10 01:15:39;;;;;;;13.07;7.03;;;;;;;8.79;67.82;102171.56;5040347;28;20170;-70
2021/11/10 01:18:05;;;;;;;9.40;7.53;;;;;;;8.95;68.07;102173.97;5039932;28;20220;-70
2021/11/10 01:20:30;;;;;;;12.20;7.60;;;;;;;9.01;68.88;102163.81;5039598;28;20388;-70
2021/11/10 01:22:56;;;;;;;10.23;8.00;;;;;;;9.13;67.36;102168.56;5039947;28;20480;-69
2021/11/10 01:25:21;;;;;;;11.63;6.50;;;;;;;9.20;66.62;102159.28;5039593;28;20185;-70
2021/11/10 01:27:47;;;;;;;13.33;8.30;;;;;;;8.87;66.99;102152.84;5039750;28;20185;-70
2021/11/10 01:30:13;;;;;;;10.37;6.93;;;;;;;9.28;66.32;102152.66;5040233;28;20181;-70
2021/11/10 01:32:39;;;;;;;9.97;7.50;;;;;;;9.07;66.39;102160.53;5039388;28;20313;-69
2021/11/10 01:35:05;;;;;;;8.10;7.27;;;;;;;9.02;66.50;102156.88;5022202;28;20436;-69
2021/11/10 01:37:30;;;;;;;9.20;6.83;;;;;;;8.99;66.60;102154.16;5039808;28;20677;-70
2021/11/10 01:39:56;;;;;;;9.47;7.83;;;;;;;9.06;65.96;102151.84;5039430;28;20447;-69
2021/11/10 01:42:25;;;;;;;9.27;6.60;;;;;;;9.18;65.69;102145.34;5039350;28;20182;-70
2021/11/10 01:44:51;;;;;;;8.77;6.43;;;;;;;9.20;65.44;102146.28;5039696;28;20212;-70
2021/11/10 01:47:16;;;;;;;9.80;7.73;;;;;;;8.97;66.12;102148.00;5039356;28;20440;-69
2021/11/10 01:49:43;;;;;;;7.63;6.90;;;;;;;9.00;65.88;102142.91;5039281;28;20205;-69
2021/11/10 01:52:09;;;;;;;7.80;6.63;;;;;;;9.00;66.08;102135.09;5039007;28;20500;-69
2021/11/10 01:54:36;;;;;;;7.80;6.47;;;;;;;9.06;65.66;102124.94;5039280;28;20561;-69
2021/11/10 01:57:03;;;;;;;10.47;7.00;;;;;;;9.14;65.25;102127.84;5039430;28;20815;-70
2021/11/10 01:59:38;;;;;;;9.30;7.30;;;;;;;9.07;65.46;102127.59;5038867;28;20395;-69
2021/11/10 02:02:06;;;;;;;10.40;7.10;;;;;;;9.19;65.25;102134.13;5021846;28;20416;-70
2021/11/10 02:04:32;;;;;;;9.93;7.17;;;;;;;9.35;65.28;102127.75;5038917;28;20483;-70
2021/11/10 02:06:59;;;;;;;9.10;7.40;;;;;;;9.12;65.15;102129.50;5038987;28;20402;-69
2021/11/10 02:09:25;;;;;;;9.10;7.10;;;;;;;9.28;64.70;102121.44;5039357;28;20412;-68
2021/11/10 02:11:52;;;;;;;8.83;7.30;;;;;;;9.27;65.08;102117.94;5038602;28;20496;-69
2021/11/10 02:14:22;;;;;;;13.67;9.00;;;;;;;9.33;65.12;102121.63;5038804;28;20202;-69
2021/11/10 02:16:49;;;;;;;15.00;8.67;;;;;;;9.32;64.68;102123.31;5022181;28;20769;-69
2021/11/10 02:19:15;;;;;;;9.90;8.13;;;;;;;9.36;64.65;102111.31;5021515;28;20421;-68
2021/11/10 02:21:43;;;;;;;10.80;8.20;;;;;;;9.14;65.84;102109.63;5021668;28;20534;-69
2021/11/10 02:24:08;;;;;;;12.50;8.20;;;;;;;9.08;66.21;102108.56;5039065;28;20693;-68
2021/11/10 02:26:34;;;;;;;13.83;7.90;;;;;;;8.95;66.28;102115.84;5038800;28;20483;-68
2021/11/10 02:28:59;;;;;;;9.10;7.07;;;;;;;9.00;65.41;102120.41;5038664;28;20174;-69
2021/11/10 02:31:24;;;;;;;9.60;7.80;;;;;;;9.03;66.01;102115.31;5038833;28;20170;-68
2021/11/10 02:33:50;;;;;;;10.93;7.03;;;;;;;8.86;65.39;102112.09;5038379;28;20214;-69
2021/11/10 02:36:15;;;;;;;13.03;7.17;;;;;;;8.95;65.84;102119.34;5038482;28;20182;-68
2021/11/10 02:38:41;;;;;;;9.17;6.97;;;;;;;8.89;65.36;102117.38;5038883;28;20178;-69
2021/11/10 02:41:07;;;;;;;11.40;6.73;;;;;;;8.95;66.98;102116.72;5038460;28;20489;-68
2021/11/10 02:43:32;;;;;;;10.63;6.67;;;;;;;9.10;65.38;102104.28;5021099;28;20468;-68
2021/11/10 02:45:58;;;;;;;16.10;7.43;;;;;;;8.97;65.88;102109.88;5038878;28;20474;-69
2021/11/10 02:48:23;;;;;;;8.40;7.50;;;;;;;9.07;64.94;102098.97;5038251;28;20177;-68
2021/11/10 02:50:49;;;;;;;10.80;7.63;;;;;;;8.96;65.71;102100.31;5037823;28;20544;-69
2021/11/10 02:53:15;;;;;;;11.90;7.03;;;;;;;8.98;65.41;102097.75;5038651;28;20209;-69
2021/11/10 02:55:40;;;;;;;12.53;8.40;;;;;;;8.75;65.90;102089.94;5037460;28;20426;-68
2021/11/10 02:58:05;;;;;;;10.77;7.50;;;;;;;8.81;66.36;102086.69;5038229;28;20170;-68
2021/11/10 03:00:32;;;;;;;10.50;7.67;;;;;;;8.88;66.04;102076.59;5038607;28;20179;-70
2021/11/10 03:02:58;;;;;;;11.37;7.13;;;;;;;8.76;66.49;102079.59;5037892;28;20540;-68
2021/11/10 03:05:24;;;;;;;9.00;7.93;;;;;;;8.77;67.22;102068.38;5038006;28;20698;-68
2021/11/10 03:07:50;;;;;;;10.30;7.83;;;;;;;8.82;65.78;102063.38;5038289;28;20419;-69
2021/11/10 03:10:16;;;;;;;11.73;7.70;;;;;;;8.67;66.78;102055.84;5037905;28;20428;-68
2021/11/10 03:12:41;;;;;;;13.23;8.67;;;;;;;8.60;66.52;102059.03;5037832;28;20205;-69
2021/11/10 03:15:07;;;;;;;8.30;7.37;;;;;;;8.67;67.09;102067.97;5021200;28;20578;-68
2021/11/10 03:17:34;;;;;;;13.27;7.97;;;;;;;8.66;66.78;102056.69;5020792;28;20189;-69
2021/11/10 03:19:59;;;;;;;8.90;6.90;;;;;;;8.55;67.38;102058.88;5037889;28;20419;-69
2021/11/10 03:22:25;;;;;;;10.93;7.70;;;;;;;8.62;66.78;102056.50;5038041;28;20417;-69
2021/11/10 03:24:50;;;;;;;8.90;7.43;;;;;;;8.70;66.85;102056.00;5020720;28;20214;-69
2021/11/10 03:27:15;;;;;;;10.27;7.80;;;;;;;8.80;65.94;102059.81;5037782;28;20228;-68
2021/11/10 03:29:41;;;;;;;9.67;7.17;;;;;;;8.70;67.27;102050.78;5038312;28;20373;-69
2021/11/10 03:32:08;;;;;;;10.80;7.30;;;;;;;8.68;65.57;102044.63;5037731;28;20189;-69
2021/11/10 03:34:33;;;;;;;8.80;7.33;;;;;;;8.79;65.98;102057.16;5037953;28;20252;-69
2021/11/10 03:36:59;;;;;;;8.30;7.33;;;;;;;8.71;66.83;102052.56;5038520;28;20413;-67
2021/11/10 03:39:24;;;;;;;11.13;8.20;;;;;;;8.79;65.78;102058.03;5037670;28;20171;-68
2021/11/10 03:41:49;;;;;;;9.80;7.70;;;;;;;8.61;66.65;102062.56;5037446;28;20529;-67
2021/11/10 03:44:15;;;;;;;11.40;8.47;;;;;;;8.62;66.06;102057.41;5038158;28;20171;-68
2021/11/10 03:46:42;;;;;;;11.63;8.70;;;;;;;8.62;66.67;102064.31;5037526;28;20209;-67
2021/11/10 03:49:08;;;;;;;11.37;8.43;;;;;;;8.47;67.29;102064.59;5037523;28;20185;-68
2021/11/10 03:51:33;;;;;;;11.90;8.30;;;;;;;8.54;66.94;102059.69;5037455;28;20849;-68
2021/11/10 03:53:59;;;;;;;10.60;8.70;;;;;;;8.62;67.30;102061.69;5037578;28;20202;-68
2021/11/10 03:56:24;;;;;;;10.10;8.13;;;;;;;8.66;67.58;102061.91;5038158;28;20181;-68
2021/11/10 03:58:50;;;;;;;11.17;8.60;;;;;;;8.69;67.04;102059.41;5020180;28;20442;-69
2021/11/10 04:01:16;;;;;;;10.53;8.37;;;;;;;8.55;67.83;102058.88;5037145;28;20174;-69
2021/11/10 04:03:42;;;;;;;15.37;8.23;;;;;;;8.67;67.75;102066.25;5037971;28;20225;-68
2021/11/10 04:06:08;;;;;;;9.40;7.90;;;;;;;8.42;69.87;102072.19;5037570;28;20726;-68
2021/11/10 04:08:34;;;;;;;9.80;8.17;;;;;;;8.37;69.23;102069.38;5041188;28;20166;-69
2021/11/10 04:11:02;;;;;;;10.27;9.07;;;;;;;8.29;69.51;102070.78;5041448;28;20388;-68
2021/11/10 04:13:29;;;;;;;12.13;8.70;;;;;;;8.22;69.27;102071.38;5040760;28;20236;-69
2021/11/10 04:15:54;;;;;;;11.23;7.30;;;;;;;8.28;69.04;102071.63;5040896;28;20402;-68
2021/11/10 04:18:20;;;;;;;11.60;9.00;;;;;;;8.24;68.95;102074.91;5041181;28;20413;-69
2021/11/10 04:20:45;;;;;;;14.70;8.57;;;;;;;8.33;69.29;102071.81;5040672;28;20170;-69
2021/11/10 04:23:11;;;;;;;11.70;8.53;;;;;;;8.42;69.53;102064.38;5041215;28;20186;-69
2021/11/10 04:25:37;;;;;;;12.97;8.60;;;;;;;8.23;69.58;102070.56;5041272;28;20177;-69
2021/11/10 04:28:03;;;;;;;11.73;8.87;;;;;;;8.31;69.46;102070.84;5040899;28;20174;-69
2021/11/10 04:30:28;;;;;;;12.83;8.53;;;;;;;8.26;69.13;102070.66;5040901;28;20432;-69
2021/11/10 04:32:53;;;;;;;10.07;8.97;;;;;;;8.18;69.85;102074.66;5040731;28;20457;-69
2021/11/10 04:35:19;;;;;;;12.40;8.87;;;;;;;8.03;70.21;102075.81;5040773;28;20170;-69
2021/11/10 04:37:44;;;;;;;11.07;8.57;;;;;;;8.14;70.25;102076.25;5040547;28;20170;-69
2021/11/10 04:40:11;;;;;;;11.40;8.50;;;;;;;8.15;70.20;102071.94;5041126;28;20170;-68
2021/11/10 04:42:37;;;;;;;13.23;9.50;;;;;;;8.08;69.44;102082.06;5040687;28;20261;-69
2021/11/10 04:45:06;;;;;;;9.90;8.90;;;;;;;8.36;68.75;102078.03;5040779;28;20799;-69
2021/11/10 04:47:32;;;;;;;13.30;9.10;;;;;;;8.28;69.05;102066.44;5041448;28;20401;-70
2021/11/10 04:49:58;;;;;;;10.20;8.37;;;;;;;8.15;70.06;102071.94;5046766;28;20427;-69
2021/11/10 04:52:24;;;;;;;13.00;9.90;;;;;;;7.86;71.72;102064.72;5040147;28;20567;-69
2021/11/10 04:54:50;;;;;;;10.73;8.90;;;;;;;7.63;72.32;102068.03;5023865;28;20183;-69
2021/11/10 04:57:16;;;;;;;13.27;8.63;;;;;;;7.44;73.35;102061.16;5040219;28;20423;-68
2021/11/10 04:59:41;;;;;;;10.30;8.80;;;;;;;7.65;71.88;102064.69;5040304;28;20261;-68
2021/11/10 05:04:32;;;;;;;16.90;9.73;;;;;;;7.43;72.45;102057.69;5040520;28;20281;-68
2021/11/10 05:06:58;;;;;;;11.87;8.73;;;;;;;7.55;72.08;102062.50;5040527;28;20186;-69
2021/11/10 05:09:23;;;;;;;15.47;9.20;;;;;;;7.72;71.06;102061.53;5040620;28;20765;-69
2021/11/10 05:11:49;;;;;;;15.10;9.10;;;;;;;7.66;70.79;102063.88;5022870;28;20205;-68
2021/11/10 05:14:14;;;;;;;12.00;8.90;;;;;;;7.70;70.49;102058.00;5040063;28;20197;-68
2021/11/10 05:16:39;;;;;;;16.03;8.57;;;;;;;7.41;71.51;102059.31;5040850;28;20178;-67
2021/11/10 05:19:05;;;;;;;11.13;8.30;;;;;;;7.75;70.44;102051.28;5039510;28;20231;-69
2021/11/10 05:21:30;;;;;;;13.00;9.03;;;;;;;7.86;70.17;102059.53;5039738;28;20174;-68
2021/11/10 05:23:55;;;;;;;15.73;8.70;;;;;;;8.02;70.06;102055.84;5040309;28;20170;-69
2021/11/10 05:26:21;;;;;;;11.67;9.63;;;;;;;7.80;70.65;102055.78;5039826;28;20253;-68
2021/11/10 05:28:46;;;;;;;15.90;9.57;;;;;;;7.96;70.02;102053.00;5022621;28;20544;-69
2021/11/10 05:31:11;;;;;;;10.40;9.30;;;;;;;7.64;71.34;102052.53;5040031;28;20257;-69
2021/11/10 05:33:37;;;;;;;12.83;8.67;;;;;;;7.80;71.38;102041.09;5039528;28;20288;-68
2021/11/10 05:36:02;;;;;;;13.10;9.97;;;;;;;7.70;71.20;102037.22;5039632;28;20544;-69
2021/11/10 05:38:27;;;;;;;14.87;10.37;;;;;;;7.73;71.12;102041.66;5040193;28;20166;-69
2021/11/10 05:40:53;;;;;;;11.10;9.57;;;;;;;7.76;70.82;102039.19;5039436;28;20190;-69
2021/11/10 05:43:18;;;;;;;14.50;9.10;;;;;;;7.71;71.21;102035.50;5039440;28;20182;-69
2021/11/10 05:45:43;;;;;;;14.47;9.10;;;;;;;7.60;71.58;102037.66;5039744;28;20427;-69
2021/11/10 05:48:09;;;;;;;14.77;10.73;;;;;;;7.59;71.43;102039.38;5039425;28;20177;-68
2021/11/10 05:50:36;;;;;;;11.77;8.93;;;;;;;7.59;71.22;102039.38;5039052;28;20185;-69
2021/11/10 05:53:01;;;;;;;14.43;9.67;;;;;;;7.67;70.73;102036.19;5039652;28;20502;-69
2021/11/10 05:55:29;;;;;;;15.23;9.23;;;;;;;7.76;70.47;102044.38;5039337;28;20425;-68
2021/11/10 05:57:54;;;;;;;12.83;8.73;;;;;;;7.89;71.38;102036.28;5039225;28;20182;-68
2021/11/10 06:00:20;;;;;;;11.60;9.43;;;;;;;7.75;70.50;102027.94;5039708;28;20679;-69
2021/11/10 06:02:45;;;;;;;20.83;9.93;;;;;;;7.88;69.08;102031.03;5039000;28;20173;-68
2021/11/10 06:05:13;;;;;;;17.20;10.27;;;;;;;7.85;69.49;102025.72;5021825;28;20391;-69
2021/11/10 06:07:38;;;;;;;14.03;9.30;;;;;;;8.00;68.68;102031.53;5039630;28;20431;-68
2021/11/10 06:10:04;;;;;;;18.60;9.73;;;;;;;7.73;68.61;102037.34;5038961;28;20392;-68
2021/11/10 06:12:29;;;;;;;13.90;10.17;;;;;;;7.83;68.99;102032.53;5038632;28;20623;-69
2021/11/10 06:14:55;;;;;;;13.57;9.67;;;;;;;7.94;68.17;102036.47;5039117;28;20181;-69
2021/11/10 06:17:20;;;;;;;15.27;11.60;;;;;;;8.22;67.26;102033.28;5038966;28;20257;-70
2021/11/10 06:19:45;;;;;;;13.73;10.60;;;;;;;8.27;67.00;102029.16;5038679;28;20531;-68
2021/11/10 06:22:11;;;;;;;19.07;10.43;;;;;;;8.11;67.89;102023.31;5038935;28;20424;-68
2021/11/10 06:24:36;;;;;;;22.93;15.40;;;;;;;8.43;66.68;102025.47;5021361;28;20220;-68
2021/11/10 06:27:01;;;;;;;21.40;10.50;;;;;;;8.28;67.32;102024.88;5038632;28;20182;-69
2021/11/10 06:29:27;;;;;;;18.63;10.97;;;;;;;8.26;67.74;102023.91;5038650;28;20236;-69
2021/11/10 06:31:52;;;;;;;17.10;10.87;;;;;;;8.16;67.73;102030.44;5037951;28;20185;-69
2021/11/10 06:34:18;;;;;;;19.83;11.43;;;;;;;8.17;68.04;102034.81;5038447;28;20289;-69
2021/11/10 06:36:43;;;;;;;17.40;12.83;;;;;;;8.32;67.94;102039.75;5039223;28;20230;-68
2021/11/10 06:39:08;;;;;;;18.53;11.57;;;;;;;8.36;67.73;102032.94;5038428;28;20265;-68
2021/11/10 06:41:34;;;;;;;17.57;11.30;;;;;;;8.18;67.86;102043.50;5038034;28;20582;-68
2021/11/10 06:44:00;;;;;;;19.13;11.60;;;;;;;8.23;68.03;102035.06;5038743;28;20162;-68
2021/11/10 06:46:25;;;;;;;15.07;10.27;;;;;;;8.14;67.97;102037.28;5038366;28;20434;-68
2021/11/10 06:48:50;;;;;;;15.57;9.93;;;;;;;8.08;67.64;102040.53;5038424;28;20173;-67
2021/11/10 06:51:16;;;;;;;12.93;9.90;;;;;;;8.16;67.35;102042.53;5038130;28;20265;-69
2021/11/10 06:53:42;;;;;;;14.93;9.30;;;;;;;8.02;67.27;102045.44;5038293;28;20225;-68
2021/11/10 06:56:07;;;;;;;13.03;8.90;;;;;;;7.92;67.71;102046.78;5038399;28;20178;-68
2021/11/10 06:58:33;;;;;;;13.97;10.20;;;;;;;8.13;67.55;102045.00;5038187;28;20625;-69
2021/11/10 07:00:58;;;;;;;11.87;9.30;;;;;;;7.97;67.55;102044.41;5037844;28;20174;-69
2021/11/10 07:03:24;;;;;;;13.23;10.27;;;;;;;8.11;66.73;102046.69;5038721;28;20158;-69
2021/11/10 07:05:49;;;;;;;11.47;9.67;;;;;;;8.30;66.52;102049.19;5038163;28;20182;-68
2021/11/10 07:08:15;;;;;;;14.40;9.93;;;;;;;8.03;67.61;102055.03;5020746;28;20178;-68
2021/11/10 07:10:40;;;;;;;13.13;10.10;;;;;;;8.04;67.23;102055.94;5038566;28;20190;-68
2021/11/10 07:13:05;;;;;;;11.33;9.77;;;;;;;8.39;66.77;102051.28;5037580;28;20244;-68
2021/11/10 07:15:31;;;;;;;12.50;9.70;;;;;;;8.43;66.02;102048.84;5037949;28;20174;-69
2021/11/10 07:17:56;;;;;;;13.10;9.13;;;;;;;8.30;66.41;102051.78;5038297;28;20434;-68
2021/11/10 07:20:21;;;;;;;15.13;9.97;;;;;;;8.45;66.08;102053.22;5038323;28;20185;-68
2021/11/10 07:22:47;;;;;;;12.83;10.60;;;;;;;8.89;64.98;102054.06;5038115;28;20162;-70
2021/11/10 07:25:12;;;;;;;12.20;9.60;;;;;;;8.58;64.98;102056.41;5038637;28;20521;-68
2021/11/10 07:27:38;;;;;;;13.27;9.90;;;;;;;8.64;65.26;102050.53;5037761;28;20174;-69
2021/11/10 07:30:06;;;;;;;11.77;9.90;;;;;;;8.68;64.94;102057.63;5037940;28;20548;-69
2021/11/10 07:32:32;;;;;;;17.67;10.73;;;;;;;8.59;65.38;102054.66;5037801;28;20224;-69
2021/11/10 07:34:57;;;;;;;15.40;11.10;;;;;;;8.56;65.42;102047.63;5037704;28;20395;-69
2021/11/10 07:37:23;;;;;;;14.70;10.97;;;;;;;8.57;65.33;102039.00;5037789;28;20666;-69
2021/11/10 07:39:48;;;;;;;15.17;10.90;;;;;;;8.75;65.13;102038.84;5020909;28;20178;-69
2021/11/10 07:42:14;;;;;;;15.63;10.60;;;;;;;9.37;63.82;102033.28;5039917;28;20186;-69
2021/11/10 07:44:40;;;;;;;14.93;10.97;;;;;;;10.66;59.13;102034.88;5024579;28;20193;-69
2021/11/10 07:47:18;;;;;;;10.90;9.80;;;;;;;12.36;53.52;102032.44;5042364;28;20170;-68
2021/11/10 07:49:44;;;;;;;11.53;9.43;;;;;;;14.00;49.27;102021.69;5026196;28;20684;-69
2021/11/10 07:52:10;;;;;;;10.77;8.80;;;;;;;14.12;47.99;102016.63;5041295;28;20447;-68
2021/11/10 07:54:36;;;;;;;38.73;16.13;;;;;;;14.07;48.85;102008.72;5039078;28;20558;-71
2021/11/10 07:57:01;;;;;;;16.93;11.00;;;;;;;14.21;47.90;102016.78;5041367;28;20306;-71
2021/11/10 07:59:27;;;;;;;24.30;14.23;;;;;;;14.70;46.52;102016.63;5041655;28;20178;-71
2021/11/10 08:01:52;;;;;;;10.60;9.53;;;;;;;14.70;46.52;102021.00;5024003;28;20178;-72
2021/11/10 08:04:18;;;;;;;11.23;9.70;;;;;;;14.59;47.34;102012.94;5041292;28;20269;-70
2021/11/10 08:06:43;;;;;;;11.00;9.90;;;;;;;14.30;46.99;102011.69;5041732;28;20535;-71
2021/11/10 08:09:09;;;;;;;12.07;9.40;;;;;;;14.07;47.22;102003.47;5023884;28;20170;-71
2021/11/10 08:11:34;;;;;;;11.93;8.83;;;;;;;14.24;47.24;101994.97;5040972;28;20216;-71
2021/11/10 08:14:00;;;;;;;10.50;8.97;;;;;;;14.10;49.04;101997.38;5041592;28;20446;-73
2021/11/10 08:16:25;;;;;;;11.50;9.50;;;;;;;14.67;46.57;101992.06;5041072;28;20189;-71
2021/11/10 08:18:51;;;;;;;10.57;8.90;;;;;;;14.96;45.92;101984.56;5023793;28;20190;-70
2021/11/10 08:21:17;;;;;;;11.17;9.97;;;;;;;14.88;46.13;101994.09;5041317;28;20525;-71
2021/11/10 08:23:42;;;;;;;16.50;11.30;;;;;;;14.79;46.03;102001.00;5040851;28;20171;-71
2021/11/10 08:26:08;;;;;;;11.83;10.10;;;;;;;14.48;46.77;102002.31;5040865;28;20413;-72
2021/11/10 08:28:33;;;;;;;10.87;9.53;;;;;;;14.92;45.89;102009.00;5041271;28;20190;-71
2021/11/10 08:30:59;;;;;;;10.07;9.07;;;;;;;15.24;45.35;102000.63;5023501;28;20181;-72
2021/11/10 08:33:25;;;;;;;9.93;8.93;;;;;;;15.58;44.51;101998.31;5040897;28;20206;-70
2021/11/10 08:35:50;;;;;;;9.80;8.80;;;;;;;15.91;44.24;101989.88;5041391;28;20432;-70
2021/11/10 08:38:17;;;;;;;11.77;9.60;;;;;;;16.29;44.60;101988.34;5040676;28;20182;-70
2021/11/10 08:40:43;;;;;;;13.47;9.70;;;;;;;15.84;43.70;101995.94;5023613;28;20495;-70
2021/11/10 08:43:11;;;;;;;12.50;8.97;;;;;;;15.34;45.18;101991.94;5041031;28;20535;-74
2021/11/10 08:45:38;;;;;;;14.20;10.57;;;;;;;15.77;44.33;101997.59;5023271;28;20174;-71
2021/11/10 08:48:05;;;;;;;10.70;9.40;;;;;;;15.45;45.32;102005.19;5023255;28;20425;-71
2021/11/10 08:50:31;;;;;;;10.00;8.90;;;;;;;16.07;43.87;102006.63;5040588;28;20417;-71
2021/11/10 08:52:57;;;;;;;10.23;9.30;;;;;;;16.34;42.97;102007.69;5039256;28;20591;-71
2021/11/10 08:55:22;;;;;;;12.90;11.07;;;;;;;16.43;43.13;101996.34;5040311;28;20497;-74
2021/11/10 08:57:49;;;;;;;15.63;11.47;;;;;;;16.70;42.59;102003.50;5021138;28;20273;-69
2021/11/10 09:00:17;;;;;;;14.87;7.67;;;;;;;18.27;50.04;102007.28;5038947;28;20182;-62
2021/11/10 09:02:43;;;;;;;12.60;10.63;;;;;;;15.17;46.23;102023.31;5040288;28;20691;-71
2021/11/10 09:05:10;;;;;;;22.87;15.23;;;;;;;14.17;48.46;102032.44;5039980;28;20413;-73
2021/11/10 09:07:35;;;;;;;14.00;12.00;;;;;;;13.13;51.74;102041.06;5039730;28;20172;-71
2021/11/10 09:10:03;;;;;;;13.83;11.17;;;;;;;13.38;51.71;102041.56;5040208;28;20417;-72
2021/11/10 09:12:28;;;;;;;12.75;10.70;;;;;;;14.65;48.98;102029.69;5039755;28;20261;-73
2021/11/10 09:14:53;;;;;;;16.47;13.53;;;;;;;15.80;45.94;102015.19;5022637;28;20537;-69
2021/11/10 09:17:19;;;;;;;11.33;10.03;;;;;;;15.28;46.48;102013.81;5040003;28;20194;-70
2021/11/10 09:19:44;;;;;;;12.43;9.83;;;;;;;14.42;48.98;102016.22;5039775;28;20178;-70
2021/11/10 09:22:10;;;;;;;15.97;11.40;;;;;;;13.71;51.10;102022.97;5039594;28;20293;-71
2021/11/10 09:24:37;;;;;;;10.33;8.83;;;;;;;13.67;51.52;102017.66;5039745;28;20170;-70
2021/11/10 09:27:03;;;;;;;18.73;13.90;;;;;;;13.74;53.05;102012.53;5039556;28;20175;-71
2021/11/10 09:29:29;;;;;;;12.23;9.40;;;;;;;13.81;52.73;102022.28;5039586;28;20421;-71
2021/11/10 09:31:55;;;;;;;16.97;11.70;;;;;;;14.71;51.82;102028.88;5022688;28;20213;-70
2021/11/10 09:34:20;;;;;;;13.47;10.13;;;;;;;16.01;47.65;102025.00;5022220;28;20560;-70
2021/11/10 09:36:48;;;;;;;18.57;12.37;;;;;;;16.07;47.90;102032.94;5039508;28;20170;-69
2021/11/10 09:39:18;;;;;;;10.73;8.83;;;;;;;15.78;48.70;102032.69;5039792;28;20469;-69
2021/11/10 09:41:52;;;;;;;13.90;11.00;;;;;;;16.14;47.58;102036.50;5039108;28;20446;-70
2021/11/10 09:44:18;;;;;;;8.60;7.90;;;;;;;15.48;48.52;102032.41;5039351;28;20420;-70
2021/11/10 09:46:44;;;;;;;9.17;8.30;;;;;;;15.68;49.07;102026.44;5039063;28;20512;-68
2021/11/10 09:49:10;;;;;;;17.57;11.67;;;;;;;16.22;47.94;102018.13;5039108;28;20457;-71
2021/11/10 09:51:37;;;;;;;10.10;8.80;;;;;;;15.85;48.82;102023.13;5049433;28;20249;-70
2021/11/10 09:54:03;;;;;;;8.07;7.27;;;;;;;15.85;48.43;102023.13;5059140;28;20470;-70
2021/11/10 09:56:30;;;;;;;9.80;8.10;;;;;;;16.02;48.71;102028.50;5059002;28;20423;-70
2021/11/10 09:58:56;;;;;;;12.33;9.27;;;;;;;15.93;48.86;102027.56;5058400;28;20692;-69
2021/11/10 10:01:21;;;;;;;8.27;7.47;;;;;;;14.76;51.72;102028.94;5058954;28;20463;-69
2021/11/10 10:03:48;;;;;;;10.57;9.23;;;;;;;14.77;51.88;102023.69;5058265;28;20420;-69
2021/11/10 10:06:14;;;;;;;9.40;8.50;;;;;;;14.76;51.58;102037.72;5058015;28;20180;-70
2021/11/10 10:08:42;;;;;;;9.03;7.90;;;;;;;14.32;52.83;102036.19;5059032;28;20423;-71
2021/11/10 10:11:07;;;;;;;10.47;8.37;;;;;;;14.01;54.08;102039.19;5058943;28;20486;-71
2021/11/10 10:13:32;;;;;;;10.27;8.63;;;;;;;13.93;54.47;102036.44;5058402;28;20693;-73
2021/11/10 10:15:58;;;;;;;8.47;7.57;;;;;;;13.68;54.83;102027.25;5057974;28;20264;-70
2021/11/10 10:18:26;;;;;;;11.03;9.97;;;;;;;13.75;55.50;102030.03;5058105;28;20590;-72
2021/11/10 10:21:04;;;;;;;16.63;9.30;;;;;;;13.36;56.59;102036.31;5058493;28;20443;-71
2021/11/10 10:23:36;;;;;;;13.70;9.80;;;;;;;13.27;56.68;102043.97;5058501;28;20422;-69
2021/11/10 10:26:11;;;;;;;14.10;8.60;;;;;;;12.58;58.86;102051.25;5058513;28;20435;-70
2021/11/10 10:29:03;;;;;;;11.73;9.23;;;;;;;12.38;59.71;102045.56;5058330;28;20449;-70
2021/11/10 10:31:29;;;;;;;9.63;8.63;;;;;;;12.51;59.09;102029.28;5057808;28;20391;-70
2021/11/10 10:34:05;;;;;;;12.90;9.90;;;;;;;12.50;59.60;102026.66;5057697;28;20449;-70
2021/11/10 10:36:33;;;;;;;13.00;10.50;;;;;;;12.70;59.68;102027.97;5058953;28;20434;-69
2021/11/10 10:39:03;;;;;;;11.20;8.53;;;;;;;12.99;57.85;102022.47;5058893;28;20843;-69
2021/11/10 10:41:32;;;;;;;11.80;9.00;;;;;;;12.26;59.94;102027.88;5058414;28;20710;-69
2021/11/10 10:44:15;;;;;;;9.70;8.80;;;;;;;12.71;57.78;102024.50;5058359;28;20672;-71
2021/11/10 10:46:43;;;;;;;13.93;10.07;;;;;;;12.85;57.60;102027.41;5058166;28;20614;-69
2021/11/10 10:49:22;;;;;;;14.33;9.97;;;;;;;12.80;57.84;102029.94;5057953;28;20505;-70
2021/11/10 10:51:52;;;;;;;12.67;10.97;;;;;;;12.66;58.68;102025.25;5045917;28;20856;-70
2021/11/10 10:54:18;;;;;;;12.43;10.00;;;;;;;12.89;57.54;102030.97;5038161;28;20467;-70
2021/11/10 10:56:53;;;;;;;18.37;11.20;;;;;;;12.97;57.92;102035.53;5038104;28;20512;-71
2021/11/10 10:59:22;;;;;;;12.40;9.13;;;;;;;13.01;58.36;102033.84;5038143;28;20430;-71
2021/11/10 11:01:53;;;;;;;12.10;10.00;;;;;;;12.78;59.12;102034.25;5020951;28;20413;-71
2021/11/10 11:04:22;;;;;;;17.00;10.37;;;;;;;13.01;57.98;102035.59;5037647;28;20452;-70
2021/11/10 11:06:56;;;;;;;9.97;8.70;;;;;;;12.82;59.33;102023.88;5038205;28;20824;-70
2021/11/10 11:09:29;;;;;;;13.70;9.80;;;;;;;12.95;59.20;102029.38;5038078;28;20413;-70
2021/11/10 11:12:15;;;;;;;11.10;8.13;;;;;;;12.45;60.61;102027.44;5037877;28;20479;-70
2021/11/10 11:14:49;;;;;;;10.93;9.67;;;;;;;12.60;60.54;102028.63;5037562;28;20434;-72
2021/11/10 11:17:35;;;;;;;8.97;8.07;;;;;;;12.47;60.75;102024.84;5037331;28;20420;-72
2021/11/10 11:20:06;;;;;;;16.77;12.50;;;;;;;12.77;60.50;102032.50;5020718;28;20443;-71